createdAt,value
2023-02-08T00:00:20.129Z,3.799
2023-02-08T00:01:19.370Z,3.821
2023-02-08T00:02:19.454Z,3.795
2023-02-08T00:03:19.278Z,3.815
2023-02-08T00:04:18.887Z,3.816
2023-02-08T00:05:18.939Z,3.786
2023-02-08T00:06:19.657Z,3.771
2023-02-08T00:07:19.683Z,3.753
2023-02-08T00:08:19.100Z,3.728
2023-02-08T00:09:19.056Z,3.714
2023-02-08T00:10:19.480Z,3.717
2023-02-08T00:11:19.255Z,3.711
2023-02-08T00:12:19.494Z,3.730
2023-02-08T00:13:18.636Z,3.710
2023-02-08T00:14:19.450Z,3.700
2023-02-08T00:15:19.662Z,3.709
2023-02-08T00:16:19.485Z,3.660
2023-02-08T00:17:19.867Z,3.637
2023-02-08T00:18:19.092Z,3.637
2023-02-08T00:19:19.047Z,3.648
2023-02-08T00:20:18.969Z,3.648
2023-02-08T00:21:18.552Z,3.625
2023-02-08T00:22:19.571Z,3.637
2023-02-08T00:23:19.066Z,3.665
2023-02-08T00:24:18.924Z,3.665
2023-02-08T00:25:18.874Z,3.631
2023-02-08T00:26:18.894Z,3.631
2023-02-08T00:27:18.604Z,3.605
2023-02-08T00:28:19.177Z,3.585
2023-02-08T00:29:18.988Z,3.589
2023-02-08T00:30:19.253Z,3.555
2023-02-08T00:31:19.073Z,3.569
2023-02-08T00:32:18.988Z,3.555
2023-02-08T00:33:19.325Z,3.569
2023-02-08T00:34:19.142Z,3.549
2023-02-08T00:35:19.390Z,3.545
2023-02-08T00:36:19.247Z,3.539
2023-02-08T00:37:18.665Z,3.529
2023-02-08T00:38:18.724Z,3.509
2023-02-08T00:39:19.720Z,3.5
2023-02-08T00:40:19.541Z,3.480
2023-02-08T00:41:19.014Z,3.464
2023-02-08T00:42:18.674Z,3.444
2023-02-08T00:43:18.462Z,3.400
2023-02-08T00:44:19.108Z,3.414
2023-02-08T00:45:19.018Z,3.394
2023-02-08T00:46:19.118Z,3.355
2023-02-08T00:47:18.914Z,3.339
2023-02-08T00:48:19.563Z,3.332
2023-02-08T00:49:18.513Z,3.326
2023-02-08T00:50:19.047Z,3.289
2023-02-08T00:51:18.891Z,3.265
2023-02-08T00:52:19.168Z,3.265
2023-02-08T00:53:19.182Z,3.275
2023-02-08T00:54:18.667Z,3.255
2023-02-08T00:55:19.730Z,3.275
2023-02-08T00:56:18.945Z,3.244
2023-02-08T00:57:19.689Z,3.220
2023-02-08T00:58:18.830Z,3.214
2023-02-08T00:59:19.045Z,3.200
2023-02-08T01:00:19.999Z,3.177
2023-02-08T01:01:21.702Z,3.165
2023-02-08T01:02:18.592Z,3.160
2023-02-08T01:03:19.047Z,3.142
2023-02-08T01:04:18.465Z,3.119
2023-02-08T01:05:18.806Z,3.160
2023-02-08T01:06:19.248Z,3.142
2023-02-08T01:07:18.464Z,3.131
2023-02-08T01:08:19.215Z,3.142
2023-02-08T01:09:18.759Z,3.160
2023-02-08T01:10:19.021Z,3.154
2023-02-08T01:11:19.444Z,3.148
2023-02-08T01:12:19.586Z,3.125
2023-02-08T01:13:19.083Z,3.137
2023-02-08T01:14:18.821Z,3.184
2023-02-08T01:15:19.474Z,3.165
2023-02-08T01:16:18.990Z,3.171
2023-02-08T01:17:19.361Z,3.190
2023-02-08T01:18:19.624Z,3.148
2023-02-08T01:19:19.234Z,3.160
2023-02-08T01:20:20.137Z,3.095
2023-02-08T01:21:20.034Z,3.098
2023-02-08T01:22:19.928Z,3.069
2023-02-08T01:23:20.115Z,3.089
2023-02-08T01:24:19.684Z,3.065
2023-02-08T01:25:19.403Z,3.092
2023-02-08T01:26:19.497Z,3.121
2023-02-08T01:27:19.306Z,3.131
2023-02-08T01:28:19.142Z,3.125
2023-02-08T01:29:19.927Z,3.160
2023-02-08T01:30:20.261Z,3.171
2023-02-08T01:31:19.336Z,3.142
2023-02-08T01:32:20.139Z,3.137
2023-02-08T01:33:19.825Z,3.131
2023-02-08T01:34:19.619Z,3.160
2023-02-08T01:35:19.459Z,3.125
2023-02-08T01:36:19.526Z,3.131
2023-02-08T01:37:19.803Z,3.105
2023-02-08T01:38:19.927Z,3.119
2023-02-08T01:39:19.207Z,3.154
2023-02-08T01:40:19.633Z,3.119
2023-02-08T01:41:19.334Z,3.125
2023-02-08T01:42:19.908Z,3.127
2023-02-08T01:43:19.288Z,3.137
2023-02-08T01:44:19.026Z,3.148
2023-02-08T01:45:19.725Z,3.109
2023-02-08T01:46:19.634Z,3.115
2023-02-08T01:47:18.808Z,3.121
2023-02-08T01:48:19.708Z,3.115
2023-02-08T01:49:18.893Z,3.109
2023-02-08T01:50:19.293Z,3.105
2023-02-08T01:51:18.864Z,3.089
2023-02-08T01:52:19.805Z,3.079
2023-02-08T01:53:19.330Z,3.109
2023-02-08T01:54:19.835Z,3.089
2023-02-08T01:55:19.834Z,3.065
2023-02-08T01:56:19.671Z,3.049
2023-02-08T01:57:19.098Z,3.049
2023-02-08T01:58:19.354Z,3.015
2023-02-08T01:59:19.416Z,3.005
2023-02-08T02:00:21.108Z,3.015
2023-02-08T02:01:19.280Z,2.950
2023-02-08T02:02:19.545Z,2.954
2023-02-08T02:03:18.795Z,2.940
2023-02-08T02:04:18.670Z,2.944
2023-02-08T02:05:19.028Z,2.940
2023-02-08T02:06:19.051Z,2.954
2023-02-08T02:07:18.343Z,2.940
2023-02-08T02:08:19.382Z,2.924
2023-02-08T02:09:19.353Z,2.934
2023-02-08T02:10:19.415Z,2.914
2023-02-08T02:11:18.704Z,2.914
2023-02-08T02:12:18.913Z,2.884
2023-02-08T02:13:18.822Z,2.855
2023-02-08T02:14:19.156Z,2.874
2023-02-08T02:15:19.542Z,2.894
2023-02-08T02:16:18.496Z,2.894
2023-02-08T02:17:18.685Z,2.879
2023-02-08T02:18:19.002Z,2.894
2023-02-08T02:19:18.693Z,2.880
2023-02-08T02:20:19.160Z,2.855
2023-02-08T02:21:18.918Z,2.838
2023-02-08T02:22:19.433Z,2.828
2023-02-08T02:23:19.389Z,2.832
2023-02-08T02:24:18.878Z,2.832
2023-02-08T02:25:19.170Z,2.810
2023-02-08T02:26:18.902Z,2.815
2023-02-08T02:27:18.286Z,2.805
2023-02-08T02:28:19.039Z,2.795
2023-02-08T02:29:18.995Z,2.759
2023-02-08T02:30:19.401Z,2.755
2023-02-08T02:31:18.721Z,2.759
2023-02-08T02:32:19.104Z,2.740
2023-02-08T02:33:18.898Z,2.730
2023-02-08T02:34:19.031Z,2.720
2023-02-08T02:35:18.850Z,2.700
2023-02-08T02:36:18.560Z,2.714
2023-02-08T02:37:18.950Z,2.700
2023-02-08T02:38:19.308Z,2.704
2023-02-08T02:39:18.978Z,2.714
2023-02-08T02:40:18.916Z,2.734
2023-02-08T02:41:18.780Z,2.739
2023-02-08T02:42:18.791Z,2.744
2023-02-08T02:43:18.437Z,2.743
2023-02-08T02:44:19.039Z,2.75
2023-02-08T02:45:19.411Z,2.75
2023-02-08T02:46:19.256Z,2.793
2023-02-08T02:47:19.524Z,2.789
2023-02-08T02:48:18.979Z,2.799
2023-02-08T02:49:18.990Z,2.815
2023-02-08T02:50:19.159Z,2.815
2023-02-08T02:51:19.625Z,2.821
2023-02-08T02:52:19.191Z,2.805
2023-02-08T02:53:18.565Z,2.815
2023-02-08T02:54:19.256Z,2.785
2023-02-08T02:55:19.757Z,2.785
2023-02-08T02:56:18.830Z,2.785
2023-02-08T02:57:18.839Z,2.765
2023-02-08T02:58:19.007Z,2.755
2023-02-08T02:59:18.857Z,2.759
2023-02-08T03:00:19.749Z,2.734
2023-02-08T03:01:19.057Z,2.710
2023-02-08T03:02:19.294Z,2.689
2023-02-08T03:03:19.151Z,2.677
2023-02-08T03:04:19.050Z,2.671
2023-02-08T03:05:19.326Z,2.689
2023-02-08T03:06:19.081Z,2.665
2023-02-08T03:07:19.333Z,2.609
2023-02-08T03:08:18.862Z,2.625
2023-02-08T03:09:19.984Z,2.625
2023-02-08T03:10:20.634Z,2.648
2023-02-08T03:11:19.522Z,2.648
2023-02-08T03:12:19.752Z,2.684
2023-02-08T03:13:19.242Z,2.678
2023-02-08T03:14:19.277Z,2.694
2023-02-08T03:15:19.437Z,2.694
2023-02-08T03:16:19.451Z,2.678
2023-02-08T03:17:19.147Z,2.671
2023-02-08T03:18:19.579Z,2.671
2023-02-08T03:19:19.231Z,2.689
2023-02-08T03:20:19.638Z,2.710
2023-02-08T03:21:19.720Z,2.740
2023-02-08T03:22:19.714Z,2.755
2023-02-08T03:23:19.225Z,2.714
2023-02-08T03:24:18.889Z,2.724
2023-02-08T03:25:19.276Z,2.730
2023-02-08T03:26:19.450Z,2.700
2023-02-08T03:27:19.376Z,2.720
2023-02-08T03:28:18.376Z,2.700
2023-02-08T03:29:19.208Z,2.700
2023-02-08T03:30:19.839Z,2.687
2023-02-08T03:31:19.850Z,2.687
2023-02-08T03:32:20.205Z,2.671
2023-02-08T03:33:19.436Z,2.678
2023-02-08T03:34:19.886Z,2.660
2023-02-08T03:35:20.147Z,2.631
2023-02-08T03:36:20.114Z,2.609
2023-02-08T03:37:19.668Z,2.585
2023-02-08T03:38:19.815Z,2.589
2023-02-08T03:39:19.685Z,2.565
2023-02-08T03:40:19.761Z,2.565
2023-02-08T03:41:19.895Z,2.549
2023-02-08T03:42:19.987Z,2.555
2023-02-08T03:43:19.811Z,2.569
2023-02-08T03:44:20.150Z,2.575
2023-02-08T03:45:19.847Z,2.569
2023-02-08T03:46:19.481Z,2.575
2023-02-08T03:47:19.705Z,2.545
2023-02-08T03:48:19.668Z,2.565
2023-02-08T03:49:19.615Z,2.549
2023-02-08T03:50:20.074Z,2.545
2023-02-08T03:51:19.167Z,2.545
2023-02-08T03:52:20.066Z,2.529
2023-02-08T03:53:19.785Z,2.539
2023-02-08T03:54:20.056Z,2.539
2023-02-08T03:55:20.250Z,2.539
2023-02-08T03:56:19.679Z,2.515
2023-02-08T03:57:19.826Z,2.515
2023-02-08T03:58:19.773Z,2.538
2023-02-08T03:59:19.761Z,2.569
2023-02-08T04:00:20.352Z,2.579
2023-02-08T04:01:19.300Z,2.599
2023-02-08T04:02:19.195Z,2.559
2023-02-08T04:03:19.331Z,2.555
2023-02-08T04:04:19.196Z,2.573
2023-02-08T04:05:19.504Z,2.581
2023-02-08T04:06:19.558Z,2.620
2023-02-08T04:07:19.444Z,2.664
2023-02-08T04:08:19.628Z,2.694
2023-02-08T04:09:19.438Z,2.677
2023-02-08T04:10:19.976Z,2.720
2023-02-08T04:11:19.317Z,2.700
2023-02-08T04:12:19.395Z,2.730
2023-02-08T04:13:19.404Z,2.724
2023-02-08T04:14:19.077Z,2.734
2023-02-08T04:15:19.380Z,2.714
2023-02-08T04:16:19.907Z,2.700
2023-02-08T04:17:20.230Z,2.710
2023-02-08T04:18:19.189Z,2.724
2023-02-08T04:19:20.030Z,2.724
2023-02-08T04:20:19.425Z,2.710
2023-02-08T04:21:19.326Z,2.724
2023-02-08T04:22:19.449Z,2.755
2023-02-08T04:23:19.460Z,2.755
2023-02-08T04:24:19.414Z,2.75
2023-02-08T04:25:19.948Z,2.755
2023-02-08T04:26:19.713Z,2.765
2023-02-08T04:27:19.716Z,2.724
2023-02-08T04:28:19.664Z,2.704
2023-02-08T04:29:18.678Z,2.687
2023-02-08T04:30:20.186Z,2.670
2023-02-08T04:31:18.787Z,2.671
2023-02-08T04:32:19.286Z,2.671
2023-02-08T04:33:19.275Z,2.654
2023-02-08T04:34:19.721Z,2.644
2023-02-08T04:35:18.704Z,2.599
2023-02-08T04:36:19.165Z,2.579
2023-02-08T04:37:18.986Z,2.579
2023-02-08T04:38:19.355Z,2.559
2023-02-08T04:39:18.781Z,2.565
2023-02-08T04:40:19.330Z,2.545
2023-02-08T04:41:19.178Z,2.509
2023-02-08T04:42:19.365Z,2.519
2023-02-08T04:43:18.772Z,2.535
2023-02-08T04:44:18.505Z,2.509
2023-02-08T04:45:19.431Z,2.5
2023-02-08T04:46:18.831Z,2.505
2023-02-08T04:47:18.244Z,2.5
2023-02-08T04:48:19.085Z,2.480
2023-02-08T04:49:18.879Z,2.434
2023-02-08T04:50:19.098Z,2.410
2023-02-08T04:51:18.644Z,2.384
2023-02-08T04:52:18.263Z,2.378
2023-02-08T04:53:18.630Z,2.332
2023-02-08T04:54:18.991Z,2.315
2023-02-08T04:55:18.834Z,2.279
2023-02-08T04:56:18.874Z,2.275
2023-02-08T04:57:18.863Z,2.240
2023-02-08T04:58:18.313Z,2.25
2023-02-08T04:59:18.782Z,2.240
2023-02-08T05:00:19.431Z,2.255
2023-02-08T05:01:19.754Z,2.240
2023-02-08T05:02:18.722Z,2.214
2023-02-08T05:03:18.605Z,2.220
2023-02-08T05:04:19.554Z,2.204
2023-02-08T05:05:19.339Z,2.184
2023-02-08T05:06:19.109Z,2.194
2023-02-08T05:07:18.363Z,2.194
2023-02-08T05:08:18.725Z,2.189
2023-02-08T05:09:19.112Z,2.194
2023-02-08T05:10:19.215Z,2.189
2023-02-08T05:11:19.302Z,2.171
2023-02-08T05:12:19.544Z,2.178
2023-02-08T05:13:18.563Z,2.178
2023-02-08T05:14:19.362Z,2.148
2023-02-08T05:15:19.509Z,2.137
2023-02-08T05:16:18.705Z,2.151
2023-02-08T05:17:18.641Z,2.167
2023-02-08T05:18:18.509Z,2.220
2023-02-08T05:19:19.094Z,2.239
2023-02-08T05:20:18.522Z,2.254
2023-02-08T05:21:18.657Z,2.244
2023-02-08T05:22:18.569Z,2.275
2023-02-08T05:23:19.383Z,2.263
2023-02-08T05:24:18.869Z,2.25
2023-02-08T05:25:18.651Z,2.265
2023-02-08T05:26:18.513Z,2.259
2023-02-08T05:27:18.417Z,2.289
2023-02-08T05:28:19.111Z,2.269
2023-02-08T05:29:19.201Z,2.295
2023-02-08T05:30:19.693Z,2.305
2023-02-08T05:31:18.491Z,2.321
2023-02-08T05:32:19.441Z,2.321
2023-02-08T05:33:19.170Z,2.344
2023-02-08T05:34:18.924Z,2.374
2023-02-08T05:35:19.568Z,2.400
2023-02-08T05:36:19.199Z,2.400
2023-02-08T05:37:18.973Z,2.355
2023-02-08T05:38:18.975Z,2.338
2023-02-08T05:39:18.702Z,2.344
2023-02-08T05:40:18.554Z,2.379
2023-02-08T05:41:18.777Z,2.404
2023-02-08T05:42:19.079Z,2.420
2023-02-08T05:43:19.188Z,2.420
2023-02-08T05:44:19.111Z,2.400
2023-02-08T05:45:19.335Z,2.404
2023-02-08T05:46:19.474Z,2.384
2023-02-08T05:47:18.633Z,2.349
2023-02-08T05:48:19.082Z,2.361
2023-02-08T05:49:18.955Z,2.380
2023-02-08T05:50:19.120Z,2.390
2023-02-08T05:51:19.223Z,2.400
2023-02-08T05:52:19.275Z,2.404
2023-02-08T05:53:18.980Z,2.420
2023-02-08T05:54:19.210Z,2.414
2023-02-08T05:55:19.185Z,2.440
2023-02-08T05:56:19.642Z,2.414
2023-02-08T05:57:18.797Z,2.434
2023-02-08T05:58:18.948Z,2.444
2023-02-08T05:59:19.347Z,2.460
2023-02-08T06:00:20.378Z,2.470
2023-02-08T06:01:19.094Z,2.470
2023-02-08T06:02:19.225Z,2.454
2023-02-08T06:03:19.000Z,2.450
2023-02-08T06:04:19.062Z,2.434
2023-02-08T06:05:19.422Z,2.410
2023-02-08T06:06:18.885Z,2.394
2023-02-08T06:07:19.577Z,2.388
2023-02-08T06:08:18.938Z,2.361
2023-02-08T06:09:19.189Z,2.361
2023-02-08T06:10:18.930Z,2.355
2023-02-08T06:11:19.537Z,2.348
2023-02-08T06:12:19.522Z,2.309
2023-02-08T06:13:19.456Z,2.309
2023-02-08T06:14:18.622Z,2.315
2023-02-08T06:15:19.633Z,2.279
2023-02-08T06:16:20.046Z,2.279
2023-02-08T06:17:19.007Z,2.259
2023-02-08T06:18:19.185Z,2.295
2023-02-08T06:19:18.831Z,2.285
2023-02-08T06:20:19.146Z,2.279
2023-02-08T06:21:19.222Z,2.285
2023-02-08T06:22:18.712Z,2.310
2023-02-08T06:23:19.030Z,2.305
2023-02-08T06:24:19.392Z,2.326
2023-02-08T06:25:19.233Z,2.285
2023-02-08T06:26:19.805Z,2.299
2023-02-08T06:27:19.241Z,2.279
2023-02-08T06:28:19.431Z,2.240
2023-02-08T06:29:18.399Z,2.234
2023-02-08T06:30:19.233Z,2.203
2023-02-08T06:31:19.732Z,2.184
2023-02-08T06:32:18.901Z,2.148
2023-02-08T06:33:19.040Z,2.125
2023-02-08T06:34:18.923Z,2.137
2023-02-08T06:35:18.723Z,2.092
2023-02-08T06:36:18.409Z,2.055
2023-02-08T06:37:19.237Z,2.059
2023-02-08T06:38:18.959Z,2.059
2023-02-08T06:39:19.084Z,2.025
2023-02-08T06:40:19.515Z,2
2023-02-08T06:41:18.552Z,1.980
2023-02-08T06:42:19.249Z,1.950
2023-02-08T06:43:19.312Z,1.949
2023-02-08T06:44:19.566Z,1.918
2023-02-08T06:45:19.265Z,1.914
2023-02-08T06:46:19.702Z,1.899
2023-02-08T06:47:18.918Z,1.878
2023-02-08T06:48:19.242Z,1.868
2023-02-08T06:49:19.161Z,1.850
2023-02-08T06:50:19.807Z,1.855
2023-02-08T06:51:18.825Z,1.850
2023-02-08T06:52:23.338Z,1.822
2023-02-08T06:53:18.725Z,1.812
2023-02-08T06:54:19.862Z,1.759
2023-02-08T06:55:19.734Z,1.774
2023-02-08T06:56:19.414Z,1.789
2023-02-08T06:57:19.447Z,1.815
2023-02-08T06:58:19.272Z,1.817
2023-02-08T06:59:19.776Z,1.832
2023-02-08T07:00:20.892Z,1.838
2023-02-08T07:01:19.381Z,1.868
2023-02-08T07:02:19.807Z,1.889
2023-02-08T07:03:18.891Z,1.889
2023-02-08T07:04:19.255Z,1.914
2023-02-08T07:05:20.123Z,1.945
2023-02-08T07:06:19.712Z,1.940
2023-02-08T07:07:19.074Z,1.945
2023-02-08T07:08:19.536Z,1.970
2023-02-08T07:09:19.009Z,1.980
2023-02-08T07:10:19.472Z,1.970
2023-02-08T07:11:19.088Z,1.950
2023-02-08T07:12:19.171Z,1.980
2023-02-08T07:13:18.887Z,1.965
2023-02-08T07:14:19.048Z,1.924
2023-02-08T07:15:19.163Z,1.894
2023-02-08T07:16:19.243Z,1.884
2023-02-08T07:17:19.291Z,1.889
2023-02-08T07:18:19.185Z,1.884
2023-02-08T07:19:19.397Z,1.904
2023-02-08T07:20:18.974Z,1.914
2023-02-08T07:21:19.657Z,1.924
2023-02-08T07:22:18.621Z,1.945
2023-02-08T07:23:18.803Z,1.955
2023-02-08T07:24:19.556Z,1.985
2023-02-08T07:25:19.425Z,1.985
2023-02-08T07:26:19.611Z,2.009
2023-02-08T07:27:19.170Z,2
2023-02-08T07:28:19.715Z,2.019
2023-02-08T07:29:19.086Z,2.005
2023-02-08T07:30:19.853Z,2.019
2023-02-08T07:31:19.100Z,2.049
2023-02-08T07:32:19.347Z,2.045
2023-02-08T07:33:18.910Z,2.065
2023-02-08T07:34:19.313Z,2.035
2023-02-08T07:35:19.102Z,2.015
2023-02-08T07:36:19.422Z,2.049
2023-02-08T07:37:19.128Z,2.055
2023-02-08T07:38:20.749Z,2.055
2023-02-08T07:39:19.317Z,2.039
2023-02-08T07:40:19.877Z,2.069
2023-02-08T07:41:18.981Z,2.095
2023-02-08T07:42:19.122Z,2.085
2023-02-08T07:43:19.818Z,2.089
2023-02-08T07:44:20.198Z,2.089
2023-02-08T07:45:19.454Z,2.120
2023-02-08T07:46:19.281Z,2.109
2023-02-08T07:47:19.442Z,2.131
2023-02-08T07:48:20.912Z,2.131
2023-02-08T07:49:19.981Z,2.165
2023-02-08T07:50:20.647Z,2.189
2023-02-08T07:51:19.763Z,2.227
2023-02-08T07:52:19.925Z,2.25
2023-02-08T07:53:19.814Z,2.255
2023-02-08T07:54:19.702Z,2.277
2023-02-08T07:55:19.805Z,2.296
2023-02-08T07:56:19.581Z,2.354
2023-02-08T07:57:19.099Z,2.388
2023-02-08T07:58:19.346Z,2.444
2023-02-08T07:59:19.584Z,2.494
2023-02-08T08:00:27.825Z,2.549
2023-02-08T08:01:22.654Z,2.615
2023-02-08T08:02:19.650Z,2.660
2023-02-08T08:03:19.168Z,2.75
2023-02-08T08:04:19.585Z,2.799
2023-02-08T08:05:19.738Z,2.880
2023-02-08T08:06:33.413Z,2.954
2023-02-08T08:07:19.484Z,3.039
2023-02-08T08:08:19.093Z,3.085
2023-02-08T08:09:19.547Z,3.154
2023-02-08T08:10:18.840Z,3.178
2023-02-08T08:11:19.203Z,3.154
2023-02-08T08:12:19.951Z,3.160
2023-02-08T08:13:19.182Z,3.204
2023-02-08T08:14:19.463Z,3.269
2023-02-08T08:15:19.895Z,3.311
2023-02-08T08:16:33.009Z,3.372
2023-02-08T08:17:19.396Z,3.414
2023-02-08T08:18:19.004Z,3.434
2023-02-08T08:19:19.242Z,3.480
2023-02-08T08:20:19.809Z,3.585
2023-02-08T08:21:18.916Z,3.625
2023-02-08T08:22:19.336Z,3.720
2023-02-08T08:23:19.683Z,3.795
2023-02-08T08:24:18.779Z,3.845
2023-02-08T08:25:19.196Z,3.908
2023-02-08T08:26:19.295Z,3.944
2023-02-08T08:27:19.443Z,4.019
2023-02-08T08:28:19.926Z,4.079
2023-02-08T08:29:19.192Z,4.149
2023-02-08T08:30:19.892Z,4.25
2023-02-08T08:31:19.412Z,4.355
2023-02-08T08:32:19.560Z,4.400
2023-02-08T08:33:19.010Z,4.480
2023-02-08T08:34:41.040Z,4.530
2023-02-08T08:35:19.352Z,4.585
2023-02-08T08:36:19.211Z,4.655
2023-02-08T08:37:19.535Z,4.715
2023-02-08T08:39:19.618Z,4.806
2023-02-08T08:40:20.985Z,4.855
2023-02-08T08:41:20.656Z,4.940
2023-02-08T08:42:19.770Z,4.974
2023-02-08T08:43:20.948Z,5.025
2023-02-08T08:44:21.118Z,5.125
2023-02-08T08:45:20.727Z,5.164
2023-02-08T08:46:20.214Z,5.235
2023-02-08T08:47:20.954Z,5.295
2023-02-08T08:49:19.764Z,5.440
2023-02-08T08:50:20.945Z,5.469
2023-02-08T08:51:20.247Z,5.530
2023-02-08T08:52:20.590Z,5.627
2023-02-08T08:53:19.981Z,5.631
2023-02-08T08:54:20.224Z,5.710
2023-02-08T08:55:20.416Z,5.760
2023-02-08T08:56:20.480Z,5.815
2023-02-08T08:57:20.769Z,5.855
2023-02-08T08:58:20.385Z,5.909
2023-02-08T08:59:20.384Z,5.985
2023-02-08T09:00:21.751Z,6.039
2023-02-08T09:01:20.513Z,6.079
2023-02-08T09:02:20.447Z,6.143
2023-02-08T09:03:20.471Z,6.204
2023-02-08T09:04:20.800Z,6.264
2023-02-08T09:05:20.321Z,6.284
2023-02-08T09:06:20.782Z,6.377
2023-02-08T09:07:20.271Z,6.429
2023-02-08T09:08:20.757Z,6.483
2023-02-08T09:09:20.521Z,6.526
2023-02-08T09:10:20.106Z,6.590
2023-02-08T09:11:20.305Z,6.614
2023-02-08T09:12:19.847Z,6.672
2023-02-08T09:13:19.900Z,6.769
2023-02-08T09:14:19.220Z,6.800
2023-02-08T09:15:20.135Z,6.797
2023-02-08T09:16:20.541Z,6.934
2023-02-08T09:17:20.597Z,7.032
2023-02-08T09:18:20.540Z,7.111
2023-02-08T09:19:20.012Z,7.183
2023-02-08T09:20:19.417Z,7.25
2023-02-08T09:21:19.562Z,7.264
2023-02-08T09:22:19.273Z,7.269
2023-02-08T09:23:19.813Z,7.289
2023-02-08T09:24:19.961Z,7.289
2023-02-08T09:25:20.003Z,7.284
2023-02-08T09:26:19.807Z,7.239
2023-02-08T09:27:20.081Z,7.260
2023-02-08T09:28:19.753Z,7.260
2023-02-08T09:29:19.501Z,7.244
2023-02-08T09:30:20.078Z,7.25
2023-02-08T09:31:19.720Z,7.260
2023-02-08T09:32:19.501Z,7.280
2023-02-08T09:33:19.574Z,7.310
2023-02-08T09:34:19.461Z,7.388
2023-02-08T09:35:19.575Z,7.445
2023-02-08T09:36:19.172Z,7.469
2023-02-08T09:37:19.331Z,7.514
2023-02-08T09:38:19.733Z,7.590
2023-02-08T09:39:19.715Z,7.869
2023-02-08T09:40:20.144Z,7.925
2023-02-08T09:41:19.299Z,7.887
2023-02-08T09:42:21.098Z,7.877
2023-02-08T09:43:20.706Z,7.920
2023-02-08T09:44:20.968Z,7.969
2023-02-08T09:45:21.479Z,8.029
2023-02-08T09:46:21.168Z,8.079
2023-02-08T09:47:20.795Z,8.161
2023-02-08T09:48:20.814Z,8.194
2023-02-08T09:49:20.993Z,8.229
2023-02-08T09:50:20.987Z,8.260
2023-02-08T09:51:21.284Z,8.317
2023-02-08T09:52:20.439Z,8.295
2023-02-08T09:53:21.020Z,8.321
2023-02-08T09:54:20.806Z,8.350
2023-02-08T09:55:21.102Z,8.361
2023-02-08T09:56:20.865Z,8.399
2023-02-08T09:57:21.108Z,8.409
2023-02-08T09:58:21.737Z,8.465
2023-02-08T09:59:20.905Z,8.555
2023-02-08T10:00:21.886Z,8.574
2023-02-08T10:01:20.942Z,8.569
2023-02-08T10:02:21.215Z,8.590
2023-02-08T10:03:21.076Z,8.637
2023-02-08T10:04:20.889Z,8.638
2023-02-08T10:05:22.268Z,8.659
2023-02-08T10:06:21.352Z,8.694
2023-02-08T10:07:21.223Z,8.699
2023-02-08T10:08:22.908Z,8.729
2023-02-08T10:09:21.467Z,8.795
2023-02-08T10:10:20.942Z,8.833
2023-02-08T10:11:20.522Z,8.899
2023-02-08T10:12:19.789Z,8.920
2023-02-08T10:13:21.464Z,8.970
2023-02-08T10:14:19.800Z,9.039
2023-02-08T10:15:20.908Z,9.126
2023-02-08T10:16:19.990Z,9.142
2023-02-08T10:17:19.573Z,9.166
2023-02-08T10:18:20.035Z,9.166
2023-02-08T10:19:20.309Z,9.180
2023-02-08T10:20:20.534Z,9.199
2023-02-08T10:21:20.016Z,9.199
2023-02-08T10:22:20.217Z,9.229
2023-02-08T10:23:27.358Z,9.225
2023-02-08T10:24:19.552Z,9.305
2023-02-08T10:25:19.859Z,9.414
2023-02-08T10:26:19.796Z,9.470
2023-02-08T10:27:20.806Z,9.510
2023-02-08T10:28:20.316Z,9.560
2023-02-08T10:29:19.919Z,9.600
2023-02-08T10:30:20.544Z,9.651
2023-02-08T10:31:20.700Z,9.687
2023-02-08T10:32:20.562Z,9.75
2023-02-08T10:33:34.071Z,9.788
2023-02-08T10:34:20.456Z,9.843
2023-02-08T10:35:34.446Z,9.920
2023-02-08T10:36:19.969Z,9.954
2023-02-08T10:37:20.004Z,10.00
2023-02-08T10:38:19.680Z,10.06
2023-02-08T10:39:19.237Z,10.00
2023-02-08T10:40:19.993Z,9.979
2023-02-08T10:41:19.371Z,10.00
2023-02-08T10:42:19.619Z,10.01
2023-02-08T10:43:19.330Z,10.06
2023-02-08T10:44:18.951Z,10.05
2023-02-08T10:45:24.722Z,10.03
2023-02-08T10:46:19.479Z,10.02
2023-02-08T10:47:19.585Z,10.05
2023-02-08T10:48:19.508Z,10.04
2023-02-08T10:49:19.264Z,10.07
2023-02-08T10:50:19.907Z,10.12
2023-02-08T10:51:20.358Z,10.11
2023-02-08T10:52:19.573Z,10.10
2023-02-08T10:53:19.390Z,10.06
2023-02-08T10:54:19.341Z,10.08
2023-02-08T10:55:19.927Z,10.10
2023-02-08T10:56:19.916Z,10.15
2023-02-08T10:57:19.624Z,10.24
2023-02-08T10:58:19.403Z,10.30
2023-02-08T10:59:18.156Z,10.37
2023-02-08T11:00:20.981Z,10.40
2023-02-08T11:01:19.617Z,10.43
2023-02-08T11:02:19.937Z,10.43
2023-02-08T11:03:19.813Z,10.52
2023-02-08T11:04:19.547Z,10.51
2023-02-08T11:05:19.748Z,10.52
2023-02-08T11:06:20.181Z,10.56
2023-02-08T11:07:19.811Z,10.55
2023-02-08T11:08:20.217Z,10.57
2023-02-08T11:09:19.937Z,10.60
2023-02-08T11:10:19.806Z,10.67
2023-02-08T11:11:20.460Z,10.71
2023-02-08T11:12:19.942Z,10.86
2023-02-08T11:13:19.489Z,11.04
2023-02-08T11:14:20.205Z,11.00
2023-02-08T11:15:20.170Z,10.93
2023-02-08T11:16:19.902Z,10.93
2023-02-08T11:17:19.763Z,10.93
2023-02-08T11:18:20.133Z,10.97
2023-02-08T11:19:19.556Z,10.97
2023-02-08T11:20:20.319Z,10.98
2023-02-08T11:21:19.783Z,11.05
2023-02-08T11:22:20.292Z,11.09
2023-02-08T11:23:19.933Z,11.15
2023-02-08T11:24:19.495Z,11.13
2023-02-08T11:25:19.888Z,11.12
2023-02-08T11:26:20.136Z,11.13
2023-02-08T11:27:19.964Z,11.15
2023-02-08T11:28:19.534Z,11.17
2023-02-08T11:29:19.776Z,11.27
2023-02-08T11:30:19.805Z,11.39
2023-02-08T11:31:19.673Z,11.38
2023-02-08T11:32:19.750Z,11.43
2023-02-08T11:33:19.520Z,11.51
2023-02-08T11:34:20.370Z,11.50
2023-02-08T11:35:20.522Z,11.52
2023-02-08T11:36:20.394Z,11.62
2023-02-08T11:37:20.087Z,11.70
2023-02-08T11:38:19.639Z,11.78
2023-02-08T11:39:19.955Z,11.76
2023-02-08T11:40:20.103Z,11.83
2023-02-08T11:41:19.962Z,11.83
2023-02-08T11:42:19.851Z,11.81
2023-02-08T11:43:19.629Z,11.81
2023-02-08T11:44:20.173Z,11.88
2023-02-08T11:45:19.788Z,11.89
2023-02-08T11:46:19.816Z,11.99
2023-02-08T11:47:21.600Z,11.93
2023-02-08T11:48:19.561Z,11.93
2023-02-08T11:49:20.455Z,11.91
2023-02-08T11:50:21.408Z,12.01
2023-02-08T11:51:20.496Z,12.03
2023-02-08T11:52:20.378Z,12
2023-02-08T11:53:20.293Z,11.98
2023-02-08T11:54:20.304Z,12.02
2023-02-08T11:55:21.002Z,12.31
2023-02-08T11:56:20.111Z,12.21
2023-02-08T11:57:19.843Z,12.08
2023-02-08T11:58:19.910Z,12.48
2023-02-08T11:59:20.056Z,12.30
2023-02-08T12:00:21.179Z,12.25
2023-02-08T12:01:19.949Z,12.21
2023-02-08T12:02:20.545Z,12.23
2023-02-08T12:03:20.300Z,12.35
2023-02-08T12:04:20.066Z,12.49
2023-02-08T12:05:20.158Z,12.34
2023-02-08T12:06:19.566Z,12.16
2023-02-08T12:07:20.040Z,12.22
2023-02-08T12:08:19.857Z,12.17
2023-02-08T12:09:20.421Z,12.12
2023-02-08T12:10:20.338Z,12.12
2023-02-08T12:11:20.453Z,12.04
2023-02-08T12:12:20.644Z,12.05
2023-02-08T12:13:20.104Z,12.06
2023-02-08T12:14:19.436Z,12.05
2023-02-08T12:15:19.619Z,12.02
2023-02-08T12:16:19.707Z,12.10
2023-02-08T12:17:19.933Z,12.13
2023-02-08T12:18:19.524Z,12.26
2023-02-08T12:19:19.792Z,12.12
2023-02-08T12:20:19.619Z,12.02
2023-02-08T12:21:20.290Z,12.06
2023-02-08T12:22:19.932Z,12.10
2023-02-08T12:23:19.639Z,12.14
2023-02-08T12:24:19.731Z,12.14
2023-02-08T12:25:19.967Z,12.18
2023-02-08T12:26:20.187Z,12.14
2023-02-08T12:27:20.034Z,12.10
2023-02-08T12:28:19.828Z,12.17
2023-02-08T12:29:19.821Z,12.22
2023-02-08T12:30:20.210Z,12.27
2023-02-08T12:31:19.488Z,12.42
2023-02-08T12:32:19.623Z,12.50
2023-02-08T12:33:19.845Z,12.70
2023-02-08T12:34:19.891Z,12.68
2023-02-08T12:35:29.527Z,12.54
2023-02-08T12:36:20.116Z,12.69
2023-02-08T12:37:20.239Z,12.65
2023-02-08T12:38:24.902Z,12.52
2023-02-08T12:39:21.893Z,12.48
2023-02-08T12:40:20.243Z,12.41
2023-02-08T12:41:19.818Z,12.42
2023-02-08T12:42:19.915Z,12.75
2023-02-08T12:43:20.289Z,12.63
2023-02-08T12:44:19.814Z,12.61
2023-02-08T12:45:20.518Z,12.54
2023-02-08T12:46:19.948Z,12.62
2023-02-08T12:47:20.061Z,12.51
2023-02-08T12:48:20.078Z,12.54
2023-02-08T12:49:19.528Z,12.77
2023-02-08T12:50:20.478Z,12.65
2023-02-08T12:51:18.862Z,12.78
2023-02-08T12:52:20.044Z,12.70
2023-02-08T12:53:19.533Z,12.60
2023-02-08T12:54:20.479Z,12.54
2023-02-08T12:55:20.354Z,12.51